• Join FlightAware (Why Join?)
  • Login
  • US Flag 
01:10PM EDT


 

Airport Tracker/Info


-or-


 

Live Flight TrackerFlight Track Log ✈ VH-OWQ ✈ 19-Nov-2013 ✈ YPKA / KTA - YPPD / PHE

Flight Track Log - Related Links

Times and Time Zones

All times are in EST time to prevent confusion due to time zone crossing. See the VH-OWQ flight status page for this flight to view local times or setup timezone preferences in your user account.

Time Position Orientation Groundspeed Altitude Reporting Facility
EST Latitude Longitude Course Direction KTS MPH feet Rate Location/Type
12:28AM -20.6871 116.9168 79° East  Level Estimated
12:29AM -20.6763 116.9779 79° East  Level Estimated
12:29AM -20.7123 116.7733 79° East  Level Aus ATC (Calculated)
12:30AM -20.7003 116.8419 79° East  Level Estimated
12:30AM -20.7021 116.8313 360° North  Level Aus ATC (Calculated)
12:30AM -20.7021 116.8313 79° East  Level Aus ATC (Calculated)
12:31AM -20.6923 116.8875 79° East  Level Aus ATC (Calculated)
12:32AM -20.6829 116.9411 79° East  Level Estimated
12:33AM -20.6750 116.9859 79° East  Level Estimated
12:33AM -20.6731 116.9964 79° East  Level Aus ATC (Calculated)
12:34AM -20.6610 117.0650 79° East  Level Estimated
12:35AM -20.6489 117.1336 79° East  Level Estimated
12:36AM -20.6367 117.2022 79° East  Level Estimated
12:36AM -20.6189 117.3025 259° West  Level Aus ATC (Calculated)
12:37AM -20.6246 117.2708 79° East  Level Estimated
12:37AM -20.6189 117.3025 79° East  Level Aus ATC (Calculated)
12:39AM -20.5985 117.4168 79° East  Level Estimated
12:40AM -20.5863 117.4853 79° East  Level Estimated
12:41AM -20.5740 117.5539 79° East  Level Estimated
12:41AM -20.5745 117.5511 79° East  Level Aus ATC (Calculated)
12:43AM -20.5508 117.6824 79° East  Level Estimated
12:43AM -20.5381 117.7529 79° East  Level Aus ATC (Calculated)
12:45AM -20.5189 117.8591 79° East  Level Estimated
12:45AM -20.5084 117.9169 79° East  Level Aus ATC (Calculated)
12:46AM -20.5064 117.9276 79° East  Level Estimated
12:47AM -20.4916 118.0093 79° East  Level Estimated
12:48AM -20.4791 118.0777 79° East  Level Estimated
12:49AM -20.4665 118.1462 79° East  Level Estimated
12:50AM -20.4540 118.2146 79° East  Level Estimated
12:51AM -20.4414 118.2830 79° East  Level Estimated
12:51AM -20.4271 118.3605 259° West  Level Aus ATC (Calculated)
12:52AM -20.4288 118.3514 79° East  Level Estimated
12:53AM -20.4128 118.4380 79° East  Level Estimated
12:54AM -20.4001 118.5064 79° East  Level Estimated
12:55AM -20.3874 118.5747 79° East  Level Estimated
12:56AM -20.3778 118.6264 79° East  Level Estimated
12:57AM -20.3778 118.6264 335° Northwest  Level Estimated
12:58AM -20.3778 118.6264 335° Northwest  Level Estimated
12:59AM -20.3778 118.6264 335° Northwest  Level Estimated
01:00AM -20.3778 118.6264 335° Northwest  Level Estimated
01:01AM -20.3778 118.6264 335° Northwest  Level Estimated
01:02AM -20.3778 118.6264 335° Northwest  Level Estimated
01:03AM -20.3778 118.6264 335° Northwest  Level Estimated
01:04AM -20.3778 118.6264 335° Northwest  Level Estimated
01:05AM -20.3778 118.6264 335° Northwest  Level Estimated
01:06AM -20.3778 118.6264 335° Northwest  Level Estimated
01:07AM -20.3778 118.6264 335° Northwest  Level Estimated
01:08AM -20.3778 118.6264 335° Northwest  Level Estimated